Time;durP1;ratioP1;P1;durP2;ratioP2;P2;SDS_P1;SDS_P2;PMS_P1;PMS_P2;Temp;Humidity;BMP_temperature;BMP_pressure;BME280_temperature;BME280_humidity;BME280_pressure;Samples;Min_cycle;Max_cycle;Signal;HPM_P1;HPM_P2
2021/05/30 00:01:28;;;;;;;25.20;17.02;;;;;;;;;;5032878;28;20150;-69
2021/05/30 00:03:54;;;;;;;23.13;15.32;;;;;;;;;;5050870;28;20055;-67
2021/05/30 00:06:20;;;;;;;24.60;14.52;;;;;;;;;;5033108;28;20111;-67
2021/05/30 00:08:46;;;;;;;25.48;15.63;;;;;;;;;;5037817;28;20120;-67
2021/05/30 00:11:12;;;;;;;29.98;18.23;;;;;;;;;;5032270;28;20608;-66
2021/05/30 00:13:38;;;;;;;23.77;14.68;;;;;;;;;;5044390;28;20108;-67
2021/05/30 00:16:04;;;;;;;24.52;14.15;;;;;;;;;;5032271;28;20017;-67
2021/05/30 00:18:30;;;;;;;24.33;14.43;;;;;;;;;;5042428;28;20463;-67
2021/05/30 00:20:56;;;;;;;22.52;13.80;;;;;;;;;;5050226;28;20439;-68
2021/05/30 00:23:22;;;;;;;23.15;15.38;;;;;;;;;;5031538;28;20285;-66
2021/05/30 00:25:48;;;;;;;23.10;13.82;;;;;;;;;;5032159;28;20025;-67
2021/05/30 00:28:14;;;;;;;25.00;14.10;;;;;;;;;;5032190;28;20471;-67
2021/05/30 00:30:40;;;;;;;23.20;14.43;;;;;;;;;;5026288;28;20024;-67
2021/05/30 00:33:06;;;;;;;26.45;15.45;;;;;;;;;;5014124;28;20109;-67
2021/05/30 00:35:33;;;;;;;27.60;16.42;;;;;;;;;;5014717;28;20030;-68
2021/05/30 00:37:59;;;;;;;22.92;14.25;;;;;;;;;;5015264;28;20048;-67
2021/05/30 00:40:25;;;;;;;26.00;15.20;;;;;;;;;;5014490;28;20076;-67
2021/05/30 00:42:51;;;;;;;23.33;15.18;;;;;;;;;;5012905;28;20028;-67
2021/05/30 00:45:17;;;;;;;26.63;15.25;;;;;;;;;;5012765;28;20021;-67
2021/05/30 00:47:43;;;;;;;26.25;14.50;;;;;;;;;;5012832;28;20043;-68
2021/05/30 00:50:09;;;;;;;25.52;14.90;;;;;;;;;;5013184;28;20029;-67
2021/05/30 00:52:36;;;;;;;23.50;14.73;;;;;;;;;;5012131;28;20033;-68
2021/05/30 00:55:02;;;;;;;26.17;15.77;;;;;;;;;;5044054;22;21219;-64
2021/05/30 00:57:28;;;;;;;24.83;15.68;;;;;;;;;;5071793;28;20036;-64
2021/05/30 00:59:54;;;;;;;26.05;14.98;;;;;;;;;;5072186;28;20069;-64
2021/05/30 01:02:20;;;;;;;26.92;15.27;;;;;;;;;;5072599;28;20114;-64
2021/05/30 01:04:49;;;;;;;23.98;15.35;;;;;;;;;;5072540;28;20055;-64
2021/05/30 01:07:17;;;;;;;25.88;15.88;;;;;;;;;;5072468;28;20024;-63
2021/05/30 01:09:45;;;;;;;27.30;16.48;;;;;;;;;;5090781;28;20055;-64
2021/05/30 01:12:11;;;;;;;27.77;17.00;;;;;;;;;;5072309;28;20032;-64
2021/05/30 01:14:37;;;;;;;25.70;16.45;;;;;;;;;;5072421;28;20118;-63
2021/05/30 01:17:07;;;;;;;27.02;17.55;;;;;;;;;;5072299;28;20100;-64
2021/05/30 01:19:34;;;;;;;25.77;16.73;;;;;;;;;;5073166;28;20031;-64
2021/05/30 01:22:00;;;;;;;26.48;16.17;;;;;;;;;;5072716;28;20483;-63
2021/05/30 01:24:26;;;;;;;26.63;16.60;;;;;;;;;;5073148;28;20107;-64
2021/05/30 01:26:52;;;;;;;24.77;16.35;;;;;;;;;;5072997;28;20035;-63
2021/05/30 01:29:18;;;;;;;28.50;17.27;;;;;;;;;;5072850;28;20064;-63
2021/05/30 01:31:44;;;;;;;26.73;16.65;;;;;;;;;;5072661;28;20486;-64
2021/05/30 01:34:10;;;;;;;25.98;16.17;;;;;;;;;;5072649;28;20076;-64
2021/05/30 01:36:36;;;;;;;52.72;36.92;;;;;;;;;;5072684;28;20031;-64
2021/05/30 01:39:02;;;;;;;52.47;34.95;;;;;;;;;;5072114;28;20114;-64
2021/05/30 01:41:29;;;;;;;37.40;25.00;;;;;;;;;;5071603;28;20050;-61
2021/05/30 01:43:55;;;;;;;42.80;30.45;;;;;;;;;;5071924;28;20032;-64
2021/05/30 01:46:21;;;;;;;29.15;19.70;;;;;;;;;;5071756;28;20035;-64
2021/05/30 01:48:47;;;;;;;46.28;30.17;;;;;;;;;;5071793;28;20024;-64
2021/05/30 01:51:13;;;;;;;40.53;27.77;;;;;;;;;;5071733;28;20036;-64
2021/05/30 01:53:51;;;;;;;32.45;20.35;;;;;;;;;;5071842;28;20020;-63
2021/05/30 01:59:02;;;;;;;29.40;18.90;;;;;;;;;;5089918;28;19927;-64
2021/05/30 02:01:29;;;;;;;29.20;17.10;;;;;;;;;;5072484;28;20059;-62
2021/05/30 02:03:55;;;;;;;29.13;17.02;;;;;;;;;;5072412;28;20028;-63
2021/05/30 02:06:21;;;;;;;29.40;18.00;;;;;;;;;;5072587;28;20479;-64
2021/05/30 02:08:48;;;;;;;27.23;16.40;;;;;;;;;;5072952;28;20494;-64
2021/05/30 02:11:14;;;;;;;29.05;17.00;;;;;;;;;;5072759;28;20024;-64
2021/05/30 02:13:41;;;;;;;29.35;18.60;;;;;;;;;;5072198;28;20035;-63
2021/05/30 02:16:07;;;;;;;29.75;17.83;;;;;;;;;;5072260;28;20020;-62
2021/05/30 02:18:33;;;;;;;29.17;17.83;;;;;;;;;;5072581;28;20074;-63
2021/05/30 02:20:59;;;;;;;29.15;18.02;;;;;;;;;;5072341;28;20395;-64
2021/05/30 02:23:25;;;;;;;29.50;17.40;;;;;;;;;;5072349;28;20225;-63
2021/05/30 02:25:51;;;;;;;28.52;16.63;;;;;;;;;;5072510;28;20094;-63
2021/05/30 02:28:17;;;;;;;27.42;16.98;;;;;;;;;;5072439;28;20110;-65
2021/05/30 02:30:43;;;;;;;32.58;17.77;;;;;;;;;;5072600;28;20032;-63
2021/05/30 02:33:09;;;;;;;30.88;17.55;;;;;;;;;;5072457;28;20115;-63
2021/05/30 02:35:35;;;;;;;29.10;17.92;;;;;;;;;;5072181;28;20111;-64
2021/05/30 02:38:03;;;;;;;29.70;17.60;;;;;;;;;;5072164;28;20115;-63
2021/05/30 02:40:29;;;;;;;31.33;17.92;;;;;;;;;;5090714;28;20034;-63
2021/05/30 02:42:55;;;;;;;27.83;16.67;;;;;;;;;;5071843;28;20475;-63
2021/05/30 02:45:21;;;;;;;29.85;17.65;;;;;;;;;;5072204;28;20027;-64
2021/05/30 02:47:47;;;;;;;29.73;16.40;;;;;;;;;;5071923;28;20124;-64
2021/05/30 02:50:13;;;;;;;30.00;17.33;;;;;;;;;;5072269;28;20024;-64
2021/05/30 02:52:40;;;;;;;28.77;17.33;;;;;;;;;;5071839;28;20519;-64
2021/05/30 02:55:06;;;;;;;31.58;17.80;;;;;;;;;;5071857;28;20020;-64
2021/05/30 02:57:32;;;;;;;28.65;17.98;;;;;;;;;;5072117;28;20452;-64
2021/05/30 02:59:58;;;;;;;28.42;16.58;;;;;;;;;;5071612;28;20040;-64
2021/05/30 03:02:24;;;;;;;29.15;17.92;;;;;;;;;;5071879;28;20248;-64
2021/05/30 03:04:50;;;;;;;28.60;17.25;;;;;;;;;;5072315;28;20480;-64
2021/05/30 03:07:16;;;;;;;29.20;17.95;;;;;;;;;;5072057;28;20024;-64
2021/05/30 03:09:42;;;;;;;31.88;17.58;;;;;;;;;;5071792;28;20392;-64
2021/05/30 03:12:09;;;;;;;32.92;17.48;;;;;;;;;;5071718;28;20043;-63
2021/05/30 03:14:35;;;;;;;32.90;18.15;;;;;;;;;;5071724;28;20024;-65
2021/05/30 03:17:01;;;;;;;31.25;18.73;;;;;;;;;;5074345;28;20106;-64
2021/05/30 03:19:27;;;;;;;29.77;17.17;;;;;;;;;;5074934;28;20391;-65
2021/05/30 03:21:53;;;;;;;28.08;17.77;;;;;;;;;;5074488;28;20028;-64
2021/05/30 03:24:19;;;;;;;28.55;16.58;;;;;;;;;;5074412;28;20048;-65
2021/05/30 03:26:45;;;;;;;31.40;18.60;;;;;;;;;;5074323;28;20055;-64
2021/05/30 03:29:11;;;;;;;31.95;17.90;;;;;;;;;;5074574;28;20016;-64
2021/05/30 03:31:37;;;;;;;30.55;18.00;;;;;;;;;;5074863;28;20073;-64
2021/05/30 03:34:03;;;;;;;29.77;17.30;;;;;;;;;;5074983;28;20080;-64
2021/05/30 03:36:31;;;;;;;29.98;18.02;;;;;;;;;;5075538;28;20482;-65
2021/05/30 03:39:04;;;;;;;33.63;18.02;;;;;;;;;;5075236;28;20035;-64
2021/05/30 03:41:35;;;;;;;32.38;17.98;;;;;;;;;;5093136;28;20105;-64
2021/05/30 03:44:01;;;;;;;27.80;17.17;;;;;;;;;;5075923;28;20448;-64
2021/05/30 03:46:27;;;;;;;31.88;18.17;;;;;;;;;;5074998;28;20476;-64
2021/05/30 03:48:53;;;;;;;28.60;16.27;;;;;;;;;;5075214;28;20032;-64
2021/05/30 03:51:19;;;;;;;27.90;17.65;;;;;;;;;;5074965;28;20035;-64
2021/05/30 03:53:45;;;;;;;30.70;18.42;;;;;;;;;;5074821;28;20028;-64
2021/05/30 03:56:11;;;;;;;31.80;19.17;;;;;;;;;;5092963;28;20215;-64
2021/05/30 03:58:37;;;;;;;29.70;19.08;;;;;;;;;;5074930;28;20023;-64
2021/05/30 04:01:03;;;;;;;29.10;17.70;;;;;;;;;;5074763;28;20426;-64
2021/05/30 04:03:29;;;;;;;32.22;19.33;;;;;;;;;;5074779;28;20036;-64
2021/05/30 04:05:55;;;;;;;29.90;18.33;;;;;;;;;;5074679;28;20024;-65
2021/05/30 04:08:23;;;;;;;29.23;17.35;;;;;;;;;;5074807;28;20059;-64
2021/05/30 04:10:49;;;;;;;28.70;18.20;;;;;;;;;;5092140;28;20125;-64
2021/05/30 04:13:16;;;;;;;30.40;18.83;;;;;;;;;;5074222;28;20058;-64
2021/05/30 04:15:42;;;;;;;30.08;18.83;;;;;;;;;;5074338;28;20111;-64
2021/05/30 04:18:08;;;;;;;31.23;18.80;;;;;;;;;;5074120;28;20051;-64
2021/05/30 04:20:34;;;;;;;30.38;18.25;;;;;;;;;;5074505;28;20328;-64
2021/05/30 04:23:00;;;;;;;31.15;18.48;;;;;;;;;;5074204;28;20560;-64
2021/05/30 04:25:26;;;;;;;28.70;17.27;;;;;;;;;;5074125;28;20024;-64
2021/05/30 04:27:52;;;;;;;26.13;16.48;;;;;;;;;;5073227;28;20020;-64
2021/05/30 04:30:18;;;;;;;30.42;17.35;;;;;;;;;;5074553;28;20345;-63
2021/05/30 04:32:44;;;;;;;30.88;18.08;;;;;;;;;;5074026;28;20020;-64
2021/05/30 04:35:11;;;;;;;29.05;18.02;;;;;;;;;;5074160;28;20077;-64
2021/05/30 04:37:37;;;;;;;30.48;18.60;;;;;;;;;;5074337;28;20016;-63
2021/05/30 04:40:04;;;;;;;30.05;17.48;;;;;;;;;;5092220;28;20532;-63
2021/05/30 04:42:30;;;;;;;30.10;17.77;;;;;;;;;;5091881;28;20050;-63
2021/05/30 04:44:56;;;;;;;29.63;18.35;;;;;;;;;;5091857;28;20091;-63
2021/05/30 04:47:22;;;;;;;28.77;18.05;;;;;;;;;;5074339;28;20012;-62
2021/05/30 04:49:48;;;;;;;30.15;18.63;;;;;;;;;;5073874;28;20020;-62
2021/05/30 04:52:14;;;;;;;29.48;17.92;;;;;;;;;;5091672;28;20371;-63
2021/05/30 04:54:40;;;;;;;27.08;16.92;;;;;;;;;;5074106;28;20028;-63
2021/05/30 04:57:06;;;;;;;29.38;17.35;;;;;;;;;;5091808;28;20100;-63
2021/05/30 04:59:32;;;;;;;27.83;17.27;;;;;;;;;;5091894;28;20032;-63
2021/05/30 05:01:58;;;;;;;30.40;18.30;;;;;;;;;;5091061;28;20034;-64
2021/05/30 05:04:25;;;;;;;28.25;17.20;;;;;;;;;;5092058;28;20486;-63
2021/05/30 05:06:51;;;;;;;26.83;17.70;;;;;;;;;;5073351;28;20024;-63
2021/05/30 05:09:17;;;;;;;30.27;17.70;;;;;;;;;;5091723;28;20020;-63
2021/05/30 05:11:42;;;;;;;28.27;17.65;;;;;;;;;;5073307;28;20490;-64
2021/05/30 05:14:09;;;;;;;30.27;18.80;;;;;;;;;;5091539;28;20024;-63
2021/05/30 05:16:35;;;;;;;30.40;16.98;;;;;;;;;;5091396;28;20039;-63
2021/05/30 05:19:02;;;;;;;27.98;18.17;;;;;;;;;;5073458;28;20065;-64
2021/05/30 05:21:28;;;;;;;26.35;17.40;;;;;;;;;;5091390;28;20535;-62
2021/05/30 05:23:54;;;;;;;28.00;17.77;;;;;;;;;;5091395;28;20118;-63
2021/05/30 05:26:20;;;;;;;27.80;18.50;;;;;;;;;;5073336;28;20378;-63
2021/05/30 05:28:47;;;;;;;27.98;17.17;;;;;;;;;;5091561;28;20012;-63
2021/05/30 05:31:13;;;;;;;29.27;18.15;;;;;;;;;;5091373;28;20062;-63
2021/05/30 05:33:39;;;;;;;27.48;18.10;;;;;;;;;;5072627;28;20460;-64
2021/05/30 05:36:05;;;;;;;29.00;18.00;;;;;;;;;;5091194;28;20075;-63
2021/05/30 05:38:31;;;;;;;29.10;18.15;;;;;;;;;;5091146;28;20019;-64
2021/05/30 05:40:57;;;;;;;28.38;17.52;;;;;;;;;;5090983;28;20448;-63
2021/05/30 05:43:23;;;;;;;28.02;17.23;;;;;;;;;;5072640;28;20024;-64
2021/05/30 05:45:49;;;;;;;26.35;18.10;;;;;;;;;;5072914;28;20257;-64
2021/05/30 05:48:16;;;;;;;28.92;19.38;;;;;;;;;;5091051;28;20492;-64
2021/05/30 05:50:42;;;;;;;31.30;19.23;;;;;;;;;;5073015;28;20107;-63
2021/05/30 05:53:08;;;;;;;31.02;18.42;;;;;;;;;;5072380;28;20059;-63
2021/05/30 05:55:34;;;;;;;28.50;17.77;;;;;;;;;;5090697;28;20024;-64
2021/05/30 05:58:01;;;;;;;27.42;18.08;;;;;;;;;;5090757;28;20023;-65
2021/05/30 06:00:27;;;;;;;31.30;18.48;;;;;;;;;;5072157;28;20432;-65
2021/05/30 06:02:53;;;;;;;27.38;18.33;;;;;;;;;;5090259;28;20024;-65
2021/05/30 06:05:20;;;;;;;26.20;17.15;;;;;;;;;;5072308;28;20026;-65
2021/05/30 06:07:47;;;;;;;27.92;17.98;;;;;;;;;;5090735;28;20027;-65
2021/05/30 06:10:14;;;;;;;28.52;17.55;;;;;;;;;;5091165;28;20545;-64
2021/05/30 06:12:40;;;;;;;25.35;17.05;;;;;;;;;;5089957;28;20487;-64
2021/05/30 06:15:07;;;;;;;27.02;17.52;;;;;;;;;;5090863;28;20426;-65
2021/05/30 06:17:32;;;;;;;31.13;19.45;;;;;;;;;;5072821;28;20016;-64
2021/05/30 06:19:59;;;;;;;27.17;18.05;;;;;;;;;;5072643;28;20069;-64
2021/05/30 06:22:25;;;;;;;27.35;17.50;;;;;;;;;;5064511;28;20747;-65
2021/05/30 06:24:51;;;;;;;29.25;18.75;;;;;;;;;;5084867;28;20399;-65
2021/05/30 06:27:17;;;;;;;27.13;17.58;;;;;;;;;;5052166;28;20023;-65
2021/05/30 06:29:43;;;;;;;29.92;18.17;;;;;;;;;;5058520;28;20468;-66
2021/05/30 06:32:09;;;;;;;28.83;18.98;;;;;;;;;;5071902;28;20040;-65
2021/05/30 06:34:35;;;;;;;31.67;20.25;;;;;;;;;;5072020;28;20020;-65
2021/05/30 06:37:01;;;;;;;26.77;18.35;;;;;;;;;;5072282;28;20023;-65
2021/05/30 06:39:27;;;;;;;28.33;19.55;;;;;;;;;;5072145;28;20399;-65
2021/05/30 06:41:54;;;;;;;28.50;18.08;;;;;;;;;;5071898;28;20024;-65
2021/05/30 06:44:20;;;;;;;27.38;17.77;;;;;;;;;;5072158;28;20035;-65
2021/05/30 06:46:47;;;;;;;27.67;18.48;;;;;;;;;;5071984;28;20051;-65
2021/05/30 06:49:13;;;;;;;27.50;18.10;;;;;;;;;;5072122;28;20464;-64
2021/05/30 06:51:39;;;;;;;25.83;17.88;;;;;;;;;;5073906;28;20032;-65
2021/05/30 06:54:06;;;;;;;26.10;17.73;;;;;;;;;;5076386;28;20038;-64
2021/05/30 06:56:32;;;;;;;29.08;18.25;;;;;;;;;;5069620;22;20041;-68
2021/05/30 06:58:59;;;;;;;26.73;16.73;;;;;;;;;;5053390;28;20021;-68
2021/05/30 07:01:25;;;;;;;24.52;15.82;;;;;;;;;;5054590;28;20094;-68
2021/05/30 07:03:52;;;;;;;26.42;16.33;;;;;;;;;;5053335;28;20060;-68
2021/05/30 07:06:19;;;;;;;26.65;17.08;;;;;;;;;;5055127;28;20523;-70
2021/05/30 07:08:46;;;;;;;28.55;17.70;;;;;;;;;;5036818;28;20051;-68
2021/05/30 07:11:12;;;;;;;26.80;16.10;;;;;;;;;;5036075;28;20132;-67
2021/05/30 07:13:39;;;;;;;28.00;17.20;;;;;;;;;;5036405;28;20033;-68
2021/05/30 07:16:05;;;;;;;24.23;15.70;;;;;;;;;;5036674;28;20032;-68
2021/05/30 07:18:31;;;;;;;24.20;15.93;;;;;;;;;;5036803;28;20018;-68
2021/05/30 07:20:57;;;;;;;24.13;15.40;;;;;;;;;;5036754;28;20028;-68
2021/05/30 07:23:23;;;;;;;27.83;15.75;;;;;;;;;;5016643;28;20029;-68
2021/05/30 07:25:51;;;;;;;22.92;14.15;;;;;;;;;;5016704;28;20045;-68
2021/05/30 07:28:17;;;;;;;24.77;15.73;;;;;;;;;;5017020;28;20099;-68
2021/05/30 07:30:43;;;;;;;25.45;15.27;;;;;;;;;;5016665;28;20026;-68
2021/05/30 07:33:09;;;;;;;24.13;14.20;;;;;;;;;;5016346;28;20025;-67
2021/05/30 07:35:35;;;;;;;22.70;14.77;;;;;;;;;;5016296;28;20175;-67
2021/05/30 07:38:02;;;;;;;22.92;15.20;;;;;;;;;;5016673;28;20440;-68
2021/05/30 07:40:29;;;;;;;24.27;14.65;;;;;;;;;;5016723;28;20290;-68
2021/05/30 07:42:55;;;;;;;22.95;13.20;;;;;;;;;;5016329;28;20115;-69
2021/05/30 07:45:22;;;;;;;21.88;14.32;;;;;;;;;;5016294;28;20030;-68
2021/05/30 07:47:49;;;;;;;23.63;14.32;;;;;;;;;;5016505;28;20032;-68
2021/05/30 07:50:15;;;;;;;29.20;14.65;;;;;;;;;;5016454;28;20057;-68
2021/05/30 07:52:41;;;;;;;23.27;14.27;;;;;;;;;;5015983;28;20442;-68
2021/05/30 07:55:08;;;;;;;19.88;12.55;;;;;;;;;;5016106;28;20485;-68
2021/05/30 07:57:34;;;;;;;24.90;14.05;;;;;;;;;;5036067;28;20485;-68
2021/05/30 08:00:01;;;;;;;20.63;13.38;;;;;;;;;;5035411;28;20047;-68
2021/05/30 08:02:27;;;;;;;21.02;13.05;;;;;;;;;;5035603;28;20029;-68
2021/05/30 08:04:55;;;;;;;20.48;13.23;;;;;;;;;;5035900;28;20029;-68
2021/05/30 08:07:21;;;;;;;21.00;13.52;;;;;;;;;;5036186;28;20032;-68
2021/05/30 08:09:47;;;;;;;19.80;12.88;;;;;;;;;;5035975;28;20028;-69
2021/05/30 08:12:13;;;;;;;21.08;13.13;;;;;;;;;;5035600;28;20385;-68
2021/05/30 08:14:40;;;;;;;21.30;13.40;;;;;;;;;;5035578;28;20029;-68
2021/05/30 08:17:07;;;;;;;22.50;13.40;;;;;;;;;;5035546;28;20017;-65
2021/05/30 08:19:33;;;;;;;19.95;12.65;;;;;;;;;;5035582;28;20087;-66
2021/05/30 08:21:59;;;;;;;23.75;13.35;;;;;;;;;;5035666;28;20074;-65
2021/05/30 08:24:25;;;;;;;20.10;13.45;;;;;;;;;;5035385;28;20036;-67
2021/05/30 08:26:52;;;;;;;20.90;13.13;;;;;;;;;;5035470;28;20244;-63
2021/05/30 08:29:19;;;;;;;21.67;12.32;;;;;;;;;;5035646;28;20029;-65
2021/05/30 08:31:47;;;;;;;20.27;12.90;;;;;;;;;;5034671;28;20500;-64
2021/05/30 08:34:13;;;;;;;19.67;12.13;;;;;;;;;;5034944;28;20036;-65
2021/05/30 08:36:40;;;;;;;20.40;12.63;;;;;;;;;;5034556;28;20115;-65
2021/05/30 08:39:06;;;;;;;23.15;13.95;;;;;;;;;;5052403;28;20103;-63
2021/05/30 08:41:32;;;;;;;22.80;13.43;;;;;;;;;;5034806;28;20060;-65
2021/05/30 08:43:58;;;;;;;21.52;12.65;;;;;;;;;;5035089;28;20029;-64
2021/05/30 08:46:27;;;;;;;23.38;12.60;;;;;;;;;;5035077;28;20050;-64
2021/05/30 08:48:54;;;;;;;18.65;11.93;;;;;;;;;;5035187;28;20120;-65
2021/05/30 08:51:20;;;;;;;21.20;12.57;;;;;;;;;;5035200;28;20068;-64
2021/05/30 08:53:46;;;;;;;19.88;12.75;;;;;;;;;;5034752;28;20044;-64
2021/05/30 08:56:13;;;;;;;19.85;12.80;;;;;;;;;;5026622;28;20017;-64
2021/05/30 08:58:41;;;;;;;19.33;12.43;;;;;;;;;;5024806;28;20041;-64
2021/05/30 09:01:08;;;;;;;22.05;13.60;;;;;;;;;;5035374;28;20481;-63
2021/05/30 09:03:49;;;;;;;19.75;12.40;;;;;;;;;;5035228;28;20033;-64
2021/05/30 09:06:15;;;;;;;20.13;13.02;;;;;;;;;;5034967;28;20028;-64
2021/05/30 09:08:42;;;;;;;20.92;13.63;;;;;;;;;;5035299;28;20400;-65
2021/05/30 09:11:08;;;;;;;19.00;12.35;;;;;;;;;;5035603;28;20143;-66
2021/05/30 09:13:39;;;;;;;18.80;12.88;;;;;;;;;;5034543;28;20396;-64
2021/05/30 09:16:09;;;;;;;19.48;12.30;;;;;;;;;;5034856;28;20025;-66
2021/05/30 09:18:35;;;;;;;19.50;12.93;;;;;;;;;;5034778;28;20031;-65
2021/05/30 09:21:03;;;;;;;20.40;12.65;;;;;;;;;;5034654;28;20103;-63
2021/05/30 09:23:35;;;;;;;20.80;13.20;;;;;;;;;;5010933;28;20074;-64
2021/05/30 09:26:11;;;;;;;19.08;12.48;;;;;;;;;;5025791;28;20078;-64
2021/05/30 09:28:38;;;;;;;21.35;12.60;;;;;;;;;;5043312;28;20028;-64
2021/05/30 09:31:05;;;;;;;18.95;12.20;;;;;;;;;;5041386;28;20112;-65
2021/05/30 09:33:32;;;;;;;20.88;12.90;;;;;;;;;;5033698;28;20101;-63
2021/05/30 09:36:00;;;;;;;19.75;12.77;;;;;;;;;;5014677;28;20466;-65
2021/05/30 09:38:30;;;;;;;20.25;13.35;;;;;;;;;;5032627;28;20462;-65
2021/05/30 09:40:57;;;;;;;20.27;13.75;;;;;;;;;;5014815;28;20025;-63
2021/05/30 09:43:23;;;;;;;21.80;15.25;;;;;;;;;;5014295;28;20029;-63
2021/05/30 09:45:59;;;;;;;18.75;12.65;;;;;;;;;;5031833;28;20022;-62
2021/05/30 09:48:25;;;;;;;18.85;12.95;;;;;;;;;;5014596;28;20034;-59
2021/05/30 09:51:04;;;;;;;17.55;13.02;;;;;;;;;;5031304;28;20017;-61
2021/05/30 09:53:34;;;;;;;18.60;12.80;;;;;;;;;;5031165;28;20025;-60
2021/05/30 09:56:00;;;;;;;19.45;12.45;;;;;;;;;;5014195;28;20022;-60
2021/05/30 09:58:27;;;;;;;19.60;14.00;;;;;;;;;;5014139;28;20052;-65
2021/05/30 10:00:53;;;;;;;18.23;13.23;;;;;;;;;;5013827;28;20576;-62
2021/05/30 10:03:19;;;;;;;18.55;13.35;;;;;;;;;;5014090;28;20057;-61
2021/05/30 10:05:46;;;;;;;20.60;14.25;;;;;;;;;;5014220;28;20025;-62
2021/05/30 10:08:13;;;;;;;18.77;14.23;;;;;;;;;;5014010;28;20030;-60
2021/05/30 10:10:39;;;;;;;23.83;16.73;;;;;;;;;;5014311;28;20029;-60
2021/05/30 10:13:06;;;;;;;19.75;14.63;;;;;;;;;;5014037;28;20034;-60
2021/05/30 10:15:32;;;;;;;19.02;14.73;;;;;;;;;;5014062;28;20120;-61
2021/05/30 10:18:04;;;;;;;19.55;14.13;;;;;;;;;;5013956;28;20014;-61
2021/05/30 10:20:30;;;;;;;17.48;13.80;;;;;;;;;;5014237;28;20071;-66
2021/05/30 10:22:57;;;;;;;18.90;15.55;;;;;;;;;;5016613;28;20022;-62
2021/05/30 10:25:29;;;;;;;18.38;14.90;;;;;;;;;;5032203;28;20053;-62
2021/05/30 10:28:15;;;;;;;19.10;15.15;;;;;;;;;;5034483;28;20159;-62
2021/05/30 10:30:51;;;;;;;18.77;14.40;;;;;;;;;;5034383;28;20124;-61
2021/05/30 10:33:24;;;;;;;18.13;14.82;;;;;;;;;;5034373;28;20035;-61
2021/05/30 10:35:55;;;;;;;18.15;15.20;;;;;;;;;;5034228;28;20108;-60
2021/05/30 10:38:42;;;;;;;17.20;14.43;;;;;;;;;;5034293;28;20026;-60
2021/05/30 10:41:23;;;;;;;18.15;15.18;;;;;;;;;;5034049;28;20475;-60
2021/05/30 10:43:49;;;;;;;19.38;13.82;;;;;;;;;;5035286;28;20072;-60
2021/05/30 10:46:18;;;;;;;18.58;14.80;;;;;;;;;;5033986;28;20401;-61
2021/05/30 10:48:46;;;;;;;18.58;14.90;;;;;;;;;;5034145;28;20021;-60
2021/05/30 10:51:32;;;;;;;;;;;;;;;;;;5034684;28;20029;-59
2021/05/30 10:54:17;;;;;;;18.88;14.90;;;;;;;;;;5034116;28;20380;-61
2021/05/30 10:56:47;;;;;;;18.55;15.13;;;;;;;;;;5033881;28;20126;-59
2021/05/30 10:59:15;;;;;;;17.77;14.27;;;;;;;;;;5033606;28;20485;-60
2021/05/30 11:01:48;;;;;;;17.60;14.25;;;;;;;;;;5033747;28;20033;-60
2021/05/30 11:04:28;;;;;;;18.65;15.35;;;;;;;;;;5033700;28;20163;-60
2021/05/30 11:06:57;;;;;;;17.40;14.63;;;;;;;;;;5033962;28;20036;-61
2021/05/30 11:09:23;;;;;;;18.27;14.00;;;;;;;;;;5033908;28;20033;-61
2021/05/30 11:12:08;;;;;;;17.73;14.90;;;;;;;;;;5033788;28;20025;-61
2021/05/30 11:14:34;;;;;;;18.92;15.75;;;;;;;;;;5033806;28;20476;-61
2021/05/30 11:17:00;;;;;;;17.13;14.00;;;;;;;;;;5034059;28;20557;-61
2021/05/30 11:19:26;;;;;;;21.38;14.65;;;;;;;;;;5033660;28;20089;-59
2021/05/30 11:21:55;;;;;;;18.05;14.85;;;;;;;;;;5033486;28;20033;-61
2021/05/30 11:24:24;;;;;;;21.80;15.60;;;;;;;;;;5033546;28;20481;-59
2021/05/30 11:27:03;;;;;;;17.70;15.40;;;;;;;;;;5033517;28;20029;-62
2021/05/30 11:29:30;;;;;;;18.92;16.08;;;;;;;;;;5035023;28;20032;-61
2021/05/30 11:31:56;;;;;;;18.00;15.32;;;;;;;;;;5033158;28;20061;-62
2021/05/30 11:34:29;;;;;;;18.10;14.95;;;;;;;;;;5033339;28;20021;-62
2021/05/30 11:37:06;;;;;;;18.27;14.80;;;;;;;;;;5033237;28;20366;-62
2021/05/30 11:39:37;;;;;;;21.02;14.98;;;;;;;;;;5033627;28;20116;-63
2021/05/30 11:42:04;;;;;;;17.35;15.07;;;;;;;;;;5033137;28;20166;-61
2021/05/30 11:44:31;;;;;;;17.55;14.73;;;;;;;;;;5033478;28;20382;-62
2021/05/30 11:46:58;;;;;;;16.60;14.50;;;;;;;;;;5034709;28;20393;-62
2021/05/30 11:49:28;;;;;;;16.95;14.90;;;;;;;;;;5033151;28;20060;-63
2021/05/30 11:52:13;;;;;;;16.95;14.63;;;26.50;81.80;;;;;;5032979;28;20491;-62
2021/05/30 11:54:42;;;;;;;17.75;13.95;;;;;;;;;;5033225;28;20112;-63
2021/05/30 11:57:09;;;;;;;17.67;14.60;;;;;;;;;;5033276;28;20051;-62
2021/05/30 11:59:45;;;;;;;18.05;15.20;;;28.90;94.00;;;;;;5032824;28;20060;-62
2021/05/30 12:02:12;;;;;;;17.20;14.25;;;;;;;;;;5032760;28;20017;-62
2021/05/30 12:04:38;;;;;;;19.77;16.00;;;;;;;;;;5034745;28;20056;-62
2021/05/30 12:07:06;;;;;;;18.48;15.73;;;;;;;;;;5034466;28;20022;-62
2021/05/30 12:09:47;;;;;;;17.25;15.35;;;;;;;;;;5033897;28;20045;-64
2021/05/30 12:12:24;;;;;;;19.48;16.38;;;;;;;;;;5031842;28;20049;-65
2021/05/30 12:14:50;;;;;;;17.13;15.32;;;;;;;;;;5034002;28;20034;-64
2021/05/30 12:17:16;;;;;;;17.52;15.50;;;;;;;;;;5033870;28;20079;-66
2021/05/30 12:19:43;;;;;;;18.75;15.80;;;;;;;;;;5033679;28;20037;-65
2021/05/30 12:22:09;;;;;;;17.58;15.35;;;;;;;;;;5032497;28;20428;-64
2021/05/30 12:24:35;;;;;;;17.42;15.52;;;;;;;;;;5033721;28;20074;-65
2021/05/30 12:27:01;;;;;;;18.60;15.95;;;29.70;91.30;;;;;;5033764;28;20377;-64
2021/05/30 12:29:30;;;;;;;18.45;15.90;;;32.30;78.00;;;;;;5032446;28;20037;-64
2021/05/30 12:31:56;;;;;;;17.77;15.27;;;32.70;76.90;;;;;;5032105;28;20473;-66
2021/05/30 12:34:35;;;;;;;16.85;15.05;;;32.50;73.40;;;;;;5032092;28;20775;-65
2021/05/30 12:37:00;;;;;;;18.58;14.98;;;32.80;73.60;;;;;;5032256;28;20014;-65
2021/05/30 12:39:27;;;;;;;16.80;14.68;;;32.70;71.40;;;;;;5032526;28;20023;-65
2021/05/30 12:42:08;;;;;;;17.35;15.45;;;31.10;74.30;;;;;;5032130;28;20030;-64
2021/05/30 12:44:43;;;;;;;17.70;14.52;;;32.10;70.80;;;;;;5033362;28;20013;-64
2021/05/30 12:47:21;;;;;;;17.50;14.45;;;31.40;72.50;;;;;;5033048;28;20025;-65
2021/05/30 12:50:04;;;;;;;17.38;15.02;;;31.60;71.60;;;;;;5032445;28;20033;-63
2021/05/30 12:52:47;;;;;;;17.00;14.57;;;32.80;70.70;;;;;;5031466;28;20018;-65
2021/05/30 12:55:14;;;;;;;17.60;15.65;;;33.30;68.60;;;;;;4684839;28;10000102;-64
2021/05/30 12:57:49;;;;;;;19.00;17.00;;;32.60;68.70;;;;;;5061129;22;20047;-58
2021/05/30 13:00:31;;;;;;;26.50;23.80;;;31.70;68.70;;;;;;5050431;28;20029;-58
2021/05/30 13:02:57;;;;;;;20.60;17.08;;;29.70;69.30;;;;;;5048123;28;20029;-58
2021/05/30 13:05:42;;;;;;;16.67;14.60;;;29.50;70.70;;;;;;5041413;28;20372;-55
2021/05/30 13:08:21;;;;;;;16.67;14.88;;;30.00;69.50;;;;;;5018092;28;20551;-57
2021/05/30 13:10:53;;;;;;;17.20;14.90;;;29.50;69.50;;;;;;5037724;28;20025;-57
2021/05/30 13:13:29;;;;;;;19.27;15.57;;;29.50;68.70;;;;;;5027587;28;20029;-61
2021/05/30 13:15:56;;;;;;;17.73;15.82;;;31.00;72.70;;;;;;5030124;28;20568;-61
2021/05/30 13:18:22;;;;;;;17.80;15.73;;;30.00;69.30;;;;;;5030377;28;20099;-59
2021/05/30 13:20:52;;;;;;;17.98;16.08;;;31.10;70.20;;;;;;5030078;28;20404;-59
2021/05/30 13:23:20;;;;;;;18.05;15.35;;;32.60;71.70;;;;;;5029940;28;20029;-60
2021/05/30 13:25:49;;;;;;;18.98;16.45;;;33.80;69.50;;;;;;5030235;28;20025;-58
2021/05/30 13:28:27;;;;;;;18.67;15.50;;;33.90;69.60;;;;;;5030190;28;20128;-61
2021/05/30 13:30:54;;;;;;;17.70;15.45;;;33.60;68.20;;;;;;5048148;28;20073;-59
2021/05/30 13:33:21;;;;;;;18.25;15.40;;;32.40;69.10;;;;;;5030074;28;20032;-59
2021/05/30 13:35:47;;;;;;;17.73;15.40;;;;;;;;;;5032097;28;20344;-61
2021/05/30 13:38:13;;;;;;;19.15;15.18;;;31.80;68.80;;;;;;5031722;28;20029;-58
2021/05/30 13:40:41;;;;;;;20.30;17.42;;;;;;;;;;4684892;28;9999845;-58
2021/05/30 13:43:07;;;;;;;19.87;14.90;;;;;;;;;;5023672;28;20095;-60
2021/05/30 13:45:33;;;;;;;18.27;15.57;;;28.80;70.00;;;;;;5014153;28;20021;-60
2021/05/30 13:48:00;;;;;;;17.83;15.93;;;29.90;71.10;;;;;;5009937;28;20374;-58
2021/05/30 13:50:26;;;;;;;18.40;15.43;;;31.10;69.40;;;;;;5010456;28;20372;-59
2021/05/30 13:52:51;;;;;;;17.48;15.50;;;32.60;70.00;;;;;;5010699;28;20109;-61
2021/05/30 13:55:17;;;;;;;17.10;15.30;;;33.30;68.30;;;;;;5009767;28;20081;-58
2021/05/30 13:57:43;;;;;;;21.60;19.30;;;31.60;66.20;;;;;;5012857;28;20440;-57
2021/05/30 14:00:09;;;;;;;22.38;19.95;;;;;;;;;;5012582;28;20194;-59
2021/05/30 14:02:35;;;;;;;17.85;15.95;;;;;;;;;;5012530;28;20129;-59
2021/05/30 14:05:01;;;;;;;19.70;16.35;;;;;;;;;;5012917;28;20018;-58
2021/05/30 14:07:27;;;;;;;17.42;15.30;;;;;;;;;;5033048;28;20836;-58
2021/05/30 14:09:53;;;;;;;18.17;15.38;;;30.40;68.20;;;;;;5021231;28;20108;-60